createdAt,value
2022-09-05T00:00:25.171Z,15.00
2022-09-05T00:01:43.146Z,15.20
2022-09-05T00:03:03.810Z,15.20
2022-09-05T00:04:24.201Z,15.10
2022-09-05T00:06:02.223Z,15.00
2022-09-05T00:07:31.174Z,15.00
2022-09-05T00:08:52.957Z,15.00
2022-09-05T00:10:10.077Z,14.90
2022-09-05T00:11:42.586Z,14.90
2022-09-05T00:12:47.241Z,14.80
2022-09-05T00:14:10.186Z,14.70
2022-09-05T00:15:24.123Z,14.60
2022-09-05T00:16:52.547Z,14.60
2022-09-05T00:24:17.332Z,14.50
2022-09-05T00:24:18.730Z,14.60
2022-09-05T00:24:27.147Z,14.50
2022-09-05T00:24:28.426Z,14.60
2022-09-05T00:25:14.819Z,14.60
2022-09-05T00:26:33.117Z,14.60
2022-09-05T00:27:46.504Z,14.50
2022-09-05T00:28:58.860Z,14.50
2022-09-05T00:31:08.815Z,16.20
2022-09-05T00:31:56.714Z,14.50
2022-09-05T00:33:28.534Z,14.50
2022-09-05T00:35:07.748Z,14.40
2022-09-05T00:36:29.015Z,14.40
2022-09-05T00:37:36.594Z,14.40
2022-09-05T00:38:53.111Z,14.40
2022-09-05T00:40:18.711Z,14.30
2022-09-05T00:41:24.109Z,14.30
2022-09-05T00:42:26.811Z,14.30
2022-09-05T00:43:35.122Z,14.30
2022-09-05T00:44:51.305Z,14.30
2022-09-05T00:46:00.784Z,14.20
2022-09-05T00:47:14.147Z,14.30
2022-09-05T00:48:26.963Z,14.20
2022-09-05T00:49:37.621Z,14.20
2022-09-05T00:50:57.953Z,14.20
2022-09-05T00:52:06.641Z,14.10
2022-09-05T00:53:19.535Z,14.10
2022-09-05T00:54:53.763Z,13.40
2022-09-05T00:56:08.622Z,14.70
2022-09-05T00:57:37.848Z,14.10
2022-09-05T00:58:54.636Z,14.10
2022-09-05T01:00:17.231Z,14.40
2022-09-05T01:01:29.723Z,14.20
2022-09-05T01:02:52.765Z,14.30
2022-09-05T01:04:33.519Z,14.30
2022-09-05T01:05:53.331Z,14.40
2022-09-05T01:07:26.451Z,14.30
2022-09-05T01:08:49.731Z,14.30
2022-09-05T01:10:08.915Z,14.30
2022-09-05T01:11:20.181Z,14.30
2022-09-05T01:12:52.977Z,14.50
2022-09-05T01:14:15.886Z,14.20
2022-09-05T01:15:32.310Z,14.10
2022-09-05T01:16:47.288Z,14.20
2022-09-05T01:18:07.081Z,14.20
2022-09-05T01:19:26.353Z,13.30
2022-09-05T01:21:02.370Z,14.20
2022-09-05T01:22:43.610Z,14.20
2022-09-05T01:24:15.583Z,14.10
2022-09-05T01:25:38.552Z,14.10
2022-09-05T01:27:18.740Z,14.00
2022-09-05T01:29:16.520Z,14.00
2022-09-05T01:30:04.051Z,14.00
2022-09-05T01:31:17.311Z,14.00
2022-09-05T01:32:35.353Z,14.20
2022-09-05T01:33:50.639Z,13.90
2022-09-05T01:35:34.444Z,16.80
2022-09-05T01:36:59.014Z,14.00
2022-09-05T01:38:13.579Z,14.00
2022-09-05T01:40:11.315Z,13.90
2022-09-05T01:41:18.266Z,13.90
2022-09-05T01:42:36.980Z,13.80
2022-09-05T01:44:13.674Z,13.70
2022-09-05T01:45:29.548Z,13.70
2022-09-05T01:46:57.005Z,13.80
2022-09-05T01:48:08.119Z,13.80
2022-09-05T01:49:25.221Z,13.70
2022-09-05T01:50:42.611Z,13.70
2022-09-05T01:52:09.195Z,13.70
2022-09-05T01:53:32.759Z,13.60
2022-09-05T01:54:49.438Z,13.70
2022-09-05T01:56:22.947Z,13.60
2022-09-05T01:57:37.911Z,13.60
2022-09-05T01:59:13.223Z,13.60
2022-09-05T02:00:21.971Z,13.60
2022-09-05T02:01:33.496Z,13.60
2022-09-05T02:02:52.312Z,13.70
2022-09-05T02:04:22.391Z,15.60
2022-09-05T02:05:47.695Z,13.70
2022-09-05T02:07:19.424Z,13.70
2022-09-05T02:08:46.533Z,13.70
2022-09-05T02:10:12.649Z,13.70
2022-09-05T02:11:35.836Z,13.80
2022-09-05T02:13:01.846Z,12.10
2022-09-05T02:14:33.484Z,12.00
2022-09-05T02:15:58.966Z,13.70
2022-09-05T02:17:46.348Z,13.70
2022-09-05T02:18:54.436Z,13.70
2022-09-05T02:20:09.494Z,13.70
2022-09-05T02:21:23.649Z,13.70
2022-09-05T02:22:41.752Z,13.70
2022-09-05T02:23:51.294Z,13.70
2022-09-05T02:26:00.479Z,13.70
2022-09-05T02:26:34.944Z,13.70
2022-09-05T02:28:04.632Z,13.70
2022-09-05T02:29:29.477Z,13.70
2022-09-05T02:33:23.814Z,13.70
2022-09-05T02:34:37.907Z,13.80
2022-09-05T02:35:52.534Z,13.90
2022-09-05T02:37:08.735Z,13.90
2022-09-05T02:39:11.475Z,13.80
2022-09-05T02:45:06.239Z,13.80
2022-09-05T02:45:06.889Z,13.70
2022-09-05T02:45:11.602Z,13.80
2022-09-05T02:45:17.494Z,13.10
2022-09-05T02:46:08.791Z,14.00
2022-09-05T02:47:24.800Z,14.00
2022-09-05T02:48:39.910Z,14.00
2022-09-05T02:51:30.903Z,14.00
2022-09-05T02:57:25.317Z,14.00
2022-09-05T02:57:26.459Z,14.00
2022-09-05T02:57:38.796Z,14.00
2022-09-05T02:58:04.692Z,13.90
2022-09-05T02:58:05.430Z,13.80
2022-09-05T02:59:36.251Z,13.60
2022-09-05T03:00:52.336Z,13.50
2022-09-05T03:02:25.332Z,13.50
2022-09-05T03:03:42.056Z,13.40
2022-09-05T03:04:52.773Z,14.20
2022-09-05T03:06:26.020Z,13.30
2022-09-05T03:08:10.059Z,13.30
2022-09-05T03:09:33.672Z,13.30
2022-09-05T03:11:12.314Z,13.20
2022-09-05T03:12:53.114Z,13.20
2022-09-05T03:14:43.513Z,13.20
2022-09-05T03:16:36.590Z,13.20
2022-09-05T03:18:21.520Z,13.20
2022-09-05T03:20:14.821Z,13.10
2022-09-05T03:22:22.853Z,13.20
2022-09-05T03:23:58.849Z,13.20
2022-09-05T03:25:54.625Z,13.20
2022-09-05T03:27:34.042Z,16.10
2022-09-05T03:29:04.620Z,13.10
2022-09-05T03:30:15.622Z,13.00
2022-09-05T03:31:50.553Z,13.00
2022-09-05T03:33:27.649Z,12.90
2022-09-05T03:35:15.627Z,12.90
2022-09-05T03:36:54.476Z,15.70
2022-09-05T03:38:33.515Z,12.80
2022-09-05T03:40:16.860Z,12.90
2022-09-05T03:41:41.282Z,12.80
2022-09-05T03:43:08.464Z,12.90
2022-09-05T03:44:47.415Z,12.90
2022-09-05T03:46:15.435Z,12.90
2022-09-05T03:47:54.259Z,13.00
2022-09-05T03:51:39.402Z,13.00
2022-09-05T03:57:04.868Z,12.90
2022-09-05T03:57:10.815Z,12.60
2022-09-05T03:57:14.288Z,12.90
2022-09-05T03:57:26.661Z,12.80
2022-09-05T03:58:56.399Z,12.50
2022-09-05T04:00:10.197Z,12.50
2022-09-05T04:03:47.169Z,12.50
2022-09-05T04:08:11.226Z,12.40
2022-09-05T04:08:24.100Z,12.40
2022-09-05T04:08:24.859Z,10.90
2022-09-05T04:08:29.814Z,12.40
2022-09-05T04:09:37.263Z,12.30
2022-09-05T04:10:54.099Z,12.30
2022-09-05T04:12:10.766Z,12.30
2022-09-05T04:13:24.037Z,12.20
2022-09-05T04:14:36.495Z,12.10
2022-09-05T04:15:45.685Z,12.50
2022-09-05T04:16:55.660Z,12.20
2022-09-05T04:18:04.569Z,12.10
2022-09-05T04:19:16.761Z,12.20
2022-09-05T04:20:32.080Z,12.20
2022-09-05T04:21:44.901Z,12.30
2022-09-05T04:23:25.016Z,12.20
2022-09-05T04:24:36.769Z,12.40
2022-09-05T04:26:12.109Z,12.30
2022-09-05T04:27:33.020Z,12.40
2022-09-05T04:28:53.442Z,12.50
2022-09-05T04:30:04.991Z,12.60
2022-09-05T04:31:38.098Z,12.60
2022-09-05T04:32:55.529Z,12.60
2022-09-05T04:34:27.063Z,12.60
2022-09-05T04:35:38.267Z,14.30
2022-09-05T04:36:45.191Z,13.00
2022-09-05T04:37:56.620Z,13.40
2022-09-05T04:39:27.405Z,14.00
2022-09-05T04:40:43.533Z,14.60
2022-09-05T04:41:51.015Z,11.40
2022-09-05T04:42:55.183Z,17.50
2022-09-05T04:44:09.184Z,15.70
2022-09-05T04:45:17.878Z,15.80
2022-09-05T04:46:48.579Z,15.90
2022-09-05T04:48:00.893Z,14.10
2022-09-05T04:49:15.271Z,16.10
2022-09-05T04:50:24.871Z,16.20
2022-09-05T04:52:00.390Z,16.30
2022-09-05T04:53:19.505Z,16.20
2022-09-05T04:54:32.831Z,16.30
2022-09-05T04:55:46.725Z,16.50
2022-09-05T04:56:59.906Z,16.60
2022-09-05T04:59:15.842Z,16.70
2022-09-05T05:03:40.523Z,16.80
2022-09-05T05:06:08.544Z,16.70
2022-09-05T05:06:17.346Z,16.60
2022-09-05T05:07:34.709Z,16.70
2022-09-05T05:08:47.614Z,16.80
2022-09-05T05:11:52.803Z,16.90
2022-09-05T05:17:16.604Z,17.10
2022-09-05T05:17:55.153Z,17.30
2022-09-05T05:18:10.551Z,17.40
2022-09-05T05:18:12.194Z,17.30
2022-09-05T05:18:12.358Z,17.30
2022-09-05T05:19:27.068Z,17.40
2022-09-05T05:20:41.690Z,17.30
2022-09-05T05:21:52.936Z,17.30
2022-09-05T05:23:07.533Z,17.40
2022-09-05T05:24:21.750Z,17.40
2022-09-05T05:25:26.477Z,17.40
2022-09-05T05:26:35.943Z,17.40
2022-09-05T05:27:45.844Z,17.80
2022-09-05T05:29:00.926Z,17.70
2022-09-05T05:30:07.570Z,17.90
2022-09-05T05:34:38.684Z,18.10
2022-09-05T05:35:48.781Z,18.50
2022-09-05T05:37:00.358Z,18.70
2022-09-05T05:38:20.448Z,18.90
2022-09-05T05:39:28.576Z,19.30
2022-09-05T05:40:37.573Z,17.00
2022-09-05T05:41:56.870Z,19.70
2022-09-05T05:43:16.425Z,19.90
2022-09-05T05:44:26.302Z,20.00
2022-09-05T05:45:33.234Z,20.10
2022-09-05T05:46:41.018Z,20.30
2022-09-05T05:47:47.868Z,20.30
2022-09-05T05:48:57.440Z,20.30
2022-09-05T05:50:09.387Z,20.30
2022-09-05T05:52:01.289Z,20.30
2022-09-05T05:53:42.411Z,20.30
2022-09-05T05:55:30.549Z,17.00
2022-09-05T05:56:41.813Z,20.20
2022-09-05T05:58:09.386Z,20.30
2022-09-05T05:59:56.263Z,20.40
2022-09-05T06:01:38.758Z,20.60
2022-09-05T06:03:29.409Z,20.60
2022-09-05T06:05:29.488Z,22.50
2022-09-05T06:06:58.370Z,20.30
2022-09-05T06:12:17.517Z,20.10
2022-09-05T06:15:00.624Z,20.30
2022-09-05T06:15:02.499Z,20.20
2022-09-05T06:15:02.951Z,20.10
2022-09-05T06:16:44.403Z,20.30
2022-09-05T06:18:17.032Z,20.60
2022-09-05T06:20:55.327Z,20.70
2022-09-05T06:22:09.577Z,20.80
2022-09-05T06:23:59.525Z,20.90
2022-09-05T06:25:52.234Z,21.00
2022-09-05T06:27:32.054Z,21.10
2022-09-05T06:28:54.732Z,21.00
2022-09-05T06:30:05.852Z,21.00
2022-09-05T06:31:29.772Z,21.10
2022-09-05T06:32:58.218Z,21.10
2022-09-05T06:34:33.471Z,21.30
2022-09-05T06:36:04.202Z,21.20
2022-09-05T06:37:24.293Z,21.20
2022-09-05T06:38:55.193Z,21.20
2022-09-05T06:40:12.801Z,21.30
2022-09-05T06:41:28.925Z,21.40
2022-09-05T06:42:49.715Z,21.40
2022-09-05T06:44:24.110Z,21.60
2022-09-05T06:45:46.821Z,21.70
2022-09-05T06:47:22.503Z,21.80
2022-09-05T06:48:44.708Z,21.90
2022-09-05T06:50:26.900Z,21.80
2022-09-05T06:52:06.832Z,21.70
2022-09-05T06:53:59.778Z,21.80
2022-09-05T06:55:50.822Z,24.40
2022-09-05T06:57:10.400Z,21.60
2022-09-05T06:58:56.592Z,21.70
2022-09-05T07:00:22.391Z,21.70
2022-09-05T07:02:00.859Z,21.70
2022-09-05T07:03:15.405Z,21.80
2022-09-05T07:05:24.500Z,22.00
2022-09-05T07:06:05.007Z,22.00
2022-09-05T07:07:23.276Z,22.00
2022-09-05T07:08:39.352Z,22.00
2022-09-05T07:09:56.106Z,22.00
2022-09-05T07:11:16.031Z,22.10
2022-09-05T07:12:28.631Z,22.00
2022-09-05T07:13:42.748Z,22.10
2022-09-05T07:15:08.922Z,22.10
2022-09-05T07:16:29.963Z,22.10
2022-09-05T07:18:09.500Z,22.20
2022-09-05T07:19:29.268Z,22.20
2022-09-05T07:21:16.789Z,21.90
2022-09-05T07:22:48.145Z,21.70
2022-09-05T07:24:08.944Z,21.60
2022-09-05T07:25:20.125Z,21.50
2022-09-05T07:26:52.103Z,21.20
2022-09-05T07:28:27.149Z,21.00
2022-09-05T07:29:27.897Z,21.00
2022-09-05T07:30:35.543Z,20.80
2022-09-05T07:31:39.808Z,20.60
2022-09-05T07:32:47.774Z,20.60
2022-09-05T07:34:21.208Z,20.60
2022-09-05T07:35:34.640Z,20.60
2022-09-05T07:36:51.632Z,20.60
2022-09-05T07:38:19.657Z,20.70
2022-09-05T07:39:29.358Z,20.80
2022-09-05T07:40:40.029Z,19.30
2022-09-05T07:41:52.137Z,20.90
2022-09-05T07:43:09.879Z,20.80
2022-09-05T07:44:22.778Z,20.80
2022-09-05T07:45:29.014Z,20.90
2022-09-05T07:46:36.915Z,20.30
2022-09-05T07:47:45.456Z,21.10
2022-09-05T07:48:59.049Z,21.10
2022-09-05T07:52:19.089Z,21.20
2022-09-05T07:56:50.567Z,21.20
2022-09-05T07:56:55.562Z,21.20
2022-09-05T07:56:56.945Z,21.40
2022-09-05T07:57:01.153Z,21.60
2022-09-05T07:57:41.043Z,21.70
2022-09-05T07:58:56.185Z,21.60
2022-09-05T08:00:25.680Z,21.40
2022-09-05T08:01:31.211Z,21.50
2022-09-05T08:02:55.073Z,21.40
2022-09-05T08:04:05.574Z,21.40
2022-09-05T08:05:10.170Z,21.50
2022-09-05T08:07:20.185Z,21.60
2022-09-05T08:07:51.953Z,21.60
2022-09-05T08:09:59.541Z,21.70
2022-09-05T08:11:23.492Z,21.70
2022-09-05T08:12:11.488Z,21.70
2022-09-05T08:13:46.228Z,21.60
2022-09-05T08:15:04.741Z,21.60
2022-09-05T08:16:13.472Z,21.70
2022-09-05T08:17:29.905Z,21.90
2022-09-05T08:18:45.216Z,22.10
2022-09-05T08:20:14.376Z,22.20
2022-09-05T08:21:27.789Z,22.40
2022-09-05T08:22:41.432Z,22.50
2022-09-05T08:23:59.942Z,22.50
2022-09-05T08:25:14.554Z,22.60
2022-09-05T08:26:38.866Z,22.70
2022-09-05T08:27:58.126Z,22.60
2022-09-05T08:29:11.350Z,22.40
2022-09-05T08:30:26.355Z,22.40
2022-09-05T08:31:42.125Z,22.30
2022-09-05T08:32:53.243Z,22.20
2022-09-05T08:34:04.830Z,22.30
2022-09-05T08:35:17.074Z,22.50
2022-09-05T08:36:33.049Z,22.60
2022-09-05T08:37:38.862Z,22.70
2022-09-05T08:38:45.580Z,22.90
2022-09-05T08:40:10.523Z,23.00
2022-09-05T08:41:42.956Z,20.80
2022-09-05T08:45:58.588Z,23.30
2022-09-05T08:46:43.589Z,23.50
2022-09-05T08:46:47.586Z,23.70
2022-09-05T08:47:45.425Z,23.90
2022-09-05T08:49:36.814Z,23.80
2022-09-05T08:51:01.662Z,23.60
2022-09-05T08:52:15.650Z,23.70
2022-09-05T08:53:46.356Z,23.70
2022-09-05T08:55:07.272Z,23.80
2022-09-05T08:56:20.671Z,23.70
2022-09-05T08:58:00.206Z,23.60
2022-09-05T08:59:31.601Z,23.60
2022-09-05T09:00:50.443Z,23.60
2022-09-05T09:02:47.109Z,23.60
2022-09-05T09:04:12.642Z,23.40
2022-09-05T09:06:11.973Z,23.40
2022-09-05T09:07:47.746Z,23.40
2022-09-05T09:09:06.972Z,21.70
2022-09-05T09:10:28.857Z,23.30
2022-09-05T09:11:38.106Z,23.10
2022-09-05T09:13:20.611Z,23.10
2022-09-05T09:14:38.160Z,22.90
2022-09-05T09:15:53.991Z,22.80
2022-09-05T09:17:10.414Z,22.70
2022-09-05T09:18:18.185Z,22.70
2022-09-05T09:19:29.456Z,22.60
2022-09-05T09:20:45.462Z,22.60
2022-09-05T09:22:06.285Z,22.70
2022-09-05T09:23:31.773Z,22.70
2022-09-05T09:24:43.152Z,22.80
2022-09-05T09:26:06.583Z,22.70
2022-09-05T09:27:44.572Z,22.70
2022-09-05T09:29:02.893Z,22.50
2022-09-05T09:30:08.035Z,22.70
2022-09-05T09:31:23.163Z,22.80
2022-09-05T09:32:28.544Z,22.90
2022-09-05T09:33:42.002Z,21.70
2022-09-05T09:34:53.827Z,23.00
2022-09-05T09:36:16.488Z,23.00
2022-09-05T09:38:07.259Z,23.10
2022-09-05T09:39:38.773Z,23.10
2022-09-05T09:41:28.584Z,23.00
2022-09-05T09:42:52.210Z,22.80
2022-09-05T09:44:25.745Z,21.50
2022-09-05T09:45:55.127Z,22.50
2022-09-05T09:47:00.138Z,22.40
2022-09-05T09:48:56.960Z,22.40
2022-09-05T09:50:21.167Z,22.50
2022-09-05T09:51:42.840Z,22.70
2022-09-05T09:53:15.176Z,22.80
2022-09-05T09:55:21.291Z,23.00
2022-09-05T09:57:04.731Z,23.00
2022-09-05T09:58:37.130Z,23.10
2022-09-05T10:00:09.670Z,23.00
2022-09-05T10:01:36.552Z,23.20
2022-09-05T10:05:27.487Z,23.20
2022-09-05T10:10:35.250Z,23.30
2022-09-05T10:10:52.607Z,23.20
2022-09-05T10:11:18.806Z,22.90
2022-09-05T10:11:37.597Z,22.90
2022-09-05T10:13:09.977Z,22.90
2022-09-05T10:14:51.181Z,22.80
2022-09-05T10:16:35.380Z,22.70
2022-09-05T10:18:18.874Z,22.70
2022-09-05T10:20:13.757Z,22.70
2022-09-05T10:21:47.186Z,22.70
2022-09-05T10:23:14.152Z,22.80
2022-09-05T10:24:51.401Z,22.90
2022-09-05T10:26:42.851Z,23.00
2022-09-05T10:28:06.632Z,23.00
2022-09-05T10:29:37.596Z,23.10
2022-09-05T10:32:27.539Z,23.20
2022-09-05T10:35:04.548Z,23.10
2022-09-05T10:35:13.243Z,22.80
2022-09-05T10:35:34.139Z,22.70
2022-09-05T10:36:52.279Z,22.50
2022-09-05T10:38:10.280Z,22.40
2022-09-05T10:39:21.318Z,22.40
2022-09-05T10:40:28.182Z,22.40
2022-09-05T10:41:45.517Z,22.50
2022-09-05T10:43:00.677Z,20.60
2022-09-05T10:44:11.052Z,22.80
2022-09-05T10:45:19.711Z,23.00
2022-09-05T10:46:52.298Z,23.10
2022-09-05T10:48:13.045Z,23.30
2022-09-05T10:49:27.222Z,23.50
2022-09-05T10:50:40.765Z,23.60
2022-09-05T10:51:52.904Z,23.40
2022-09-05T10:53:15.738Z,23.40
2022-09-05T10:54:35.614Z,23.50
2022-09-05T10:55:57.013Z,23.70
2022-09-05T10:57:24.438Z,23.80
2022-09-05T11:00:10.916Z,23.90
2022-09-05T11:02:24.704Z,23.90
2022-09-05T11:02:33.557Z,24.10
2022-09-05T11:03:50.430Z,24.10
2022-09-05T11:05:07.793Z,24.10
2022-09-05T11:06:15.945Z,24.00
2022-09-05T11:07:27.899Z,24.00
2022-09-05T11:08:46.973Z,23.90
2022-09-05T11:10:02.802Z,23.90
2022-09-05T11:11:28.381Z,23.80
2022-09-05T11:13:10.784Z,23.80
2022-09-05T11:14:36.626Z,23.90
2022-09-05T11:16:03.643Z,23.90
2022-09-05T11:17:21.432Z,24.00
2022-09-05T11:18:56.095Z,24.10
2022-09-05T11:20:34.918Z,24.30
2022-09-05T11:22:07.422Z,24.30
2022-09-05T11:23:24.039Z,24.20
2022-09-05T11:24:37.264Z,24.20
2022-09-05T11:25:43.151Z,24.30
2022-09-05T11:27:13.803Z,24.30
2022-09-05T11:28:32.526Z,24.20
2022-09-05T11:29:44.974Z,24.10
2022-09-05T11:30:57.701Z,24.00
2022-09-05T11:36:38.588Z,23.90
2022-09-05T11:36:47.098Z,23.70
2022-09-05T11:39:54.550Z,24.00
2022-09-05T11:40:10.855Z,23.80
2022-09-05T11:40:31.417Z,24.20
2022-09-05T11:42:10.961Z,24.40
2022-09-05T11:43:49.492Z,24.60
2022-09-05T11:45:17.684Z,24.70
2022-09-05T11:46:38.279Z,24.80
2022-09-05T11:48:16.068Z,24.80
2022-09-05T11:49:47.526Z,24.80
2022-09-05T11:51:38.280Z,24.90
2022-09-05T11:53:22.451Z,25.00
2022-09-05T11:55:20.638Z,25.00
2022-09-05T11:57:18.005Z,24.90
2022-09-05T11:58:48.732Z,24.70
2022-09-05T12:00:28.184Z,24.70
2022-09-05T12:01:47.977Z,24.60
2022-09-05T12:03:41.529Z,24.40
2022-09-05T12:05:49.201Z,24.30
2022-09-05T12:07:31.567Z,24.10
2022-09-05T12:08:43.381Z,23.90
2022-09-05T12:10:46.159Z,23.90
2022-09-05T12:11:54.413Z,24.10
2022-09-05T12:13:39.598Z,24.20
2022-09-05T12:15:07.155Z,24.30
2022-09-05T12:16:26.743Z,24.40
2022-09-05T12:17:39.705Z,24.50
2022-09-05T12:19:10.506Z,24.40
2022-09-05T12:20:37.526Z,24.30
2022-09-05T12:22:10.120Z,24.20
2022-09-05T12:24:40.775Z,24.00
2022-09-05T12:27:40.300Z,24.10
2022-09-05T12:27:40.394Z,24.10
2022-09-05T12:29:28.177Z,24.00
2022-09-05T12:30:10.570Z,24.00
2022-09-05T12:32:17.596Z,24.10
2022-09-05T12:35:50.082Z,24.30
2022-09-05T12:36:13.212Z,24.50
2022-09-05T12:40:54.924Z,25.80
2022-09-05T12:40:55.040Z,24.70
2022-09-05T12:40:57.773Z,24.80
2022-09-05T12:41:44.373Z,24.70
2022-09-05T12:42:48.302Z,24.90
2022-09-05T12:44:41.655Z,25.00
2022-09-05T12:47:19.329Z,25.20
2022-09-05T12:48:39.265Z,25.10
2022-09-05T12:50:02.978Z,25.20
2022-09-05T12:51:45.785Z,25.30
2022-09-05T12:52:53.246Z,23.10
2022-09-05T12:54:01.696Z,25.10
2022-09-05T12:55:11.119Z,25.10
2022-09-05T12:58:09.040Z,25.20
2022-09-05T13:01:03.618Z,25.20
2022-09-05T13:03:05.122Z,25.20
2022-09-05T13:03:13.478Z,25.20
2022-09-05T13:03:14.548Z,25.30
2022-09-05T13:04:16.655Z,25.30
2022-09-05T13:05:23.604Z,25.20
2022-09-05T13:06:32.243Z,25.80
2022-09-05T13:07:42.939Z,25.00
2022-09-05T13:08:59.154Z,24.90
2022-09-05T13:14:47.445Z,24.90
2022-09-05T13:14:48.501Z,24.00
2022-09-05T13:14:56.313Z,24.90
2022-09-05T13:15:12.310Z,25.00
2022-09-05T13:16:26.382Z,25.00
2022-09-05T13:17:44.366Z,24.90
2022-09-05T13:18:51.770Z,24.80
2022-09-05T13:19:57.876Z,24.70
2022-09-05T13:21:08.589Z,24.80
2022-09-05T13:22:17.800Z,24.80
2022-09-05T13:23:25.829Z,24.70
2022-09-05T13:24:34.445Z,24.90
2022-09-05T13:25:43.933Z,25.00
2022-09-05T13:26:57.805Z,25.10
2022-09-05T13:28:06.754Z,25.20
2022-09-05T13:29:19.820Z,25.20
2022-09-05T13:32:53.872Z,25.10
2022-09-05T13:37:55.782Z,25.00
2022-09-05T13:38:07.594Z,25.10
2022-09-05T13:38:12.202Z,25.00
2022-09-05T13:38:15.621Z,25.10
2022-09-05T13:38:35.883Z,25.30
2022-09-05T13:39:57.306Z,25.40
2022-09-05T13:41:04.556Z,25.40
2022-09-05T13:42:18.516Z,25.40
2022-09-05T13:43:27.608Z,25.50
2022-09-05T13:44:41.330Z,25.50
2022-09-05T13:46:08.055Z,25.50
2022-09-05T13:47:28.988Z,25.30
2022-09-05T13:50:28.338Z,25.20
2022-09-05T13:51:37.018Z,25.10
2022-09-05T13:52:46.064Z,25.10
2022-09-05T13:53:54.950Z,24.90
2022-09-05T13:55:16.205Z,24.70
2022-09-05T13:56:25.955Z,24.60
2022-09-05T13:57:36.586Z,24.60
2022-09-05T13:58:56.765Z,24.60
2022-09-05T14:06:48.912Z,23.80
2022-09-05T14:08:35.550Z,23.70
2022-09-05T14:10:22.210Z,23.90
2022-09-05T14:11:56.701Z,24.10
2022-09-05T14:13:08.493Z,24.20
2022-09-05T14:15:08.425Z,24.20
2022-09-05T14:15:54.838Z,24.30
2022-09-05T14:18:55.520Z,24.30
2022-09-05T14:20:20.833Z,24.40
2022-09-05T14:21:29.128Z,24.50
2022-09-05T14:22:39.449Z,24.60
2022-09-05T14:23:53.827Z,24.60
2022-09-05T14:24:58.735Z,24.60
2022-09-05T14:26:14.828Z,24.70
2022-09-05T14:27:26.380Z,24.80
2022-09-05T14:28:47.236Z,24.80
2022-09-05T14:31:08.168Z,24.90
2022-09-05T14:37:37.220Z,24.90
2022-09-05T14:37:41.131Z,25.10
2022-09-05T14:37:42.241Z,24.90
2022-09-05T14:37:51.308Z,25.00
2022-09-05T14:39:14.438Z,24.90
2022-09-05T14:40:47.105Z,25.00
2022-09-05T14:42:33.718Z,23.80
2022-09-05T14:44:08.042Z,25.00
2022-09-05T14:45:37.762Z,24.50
2022-09-05T14:47:06.844Z,25.10
2022-09-05T14:48:45.660Z,25.00
2022-09-05T14:50:17.917Z,24.90
2022-09-05T14:51:46.092Z,24.80
2022-09-05T14:55:58.725Z,24.60
2022-09-05T15:02:42.619Z,24.80
2022-09-05T15:02:53.440Z,24.70
2022-09-05T15:02:55.370Z,23.10
2022-09-05T15:02:57.902Z,24.70
2022-09-05T15:05:11.645Z,24.70
2022-09-05T15:06:21.571Z,24.80
2022-09-05T15:07:39.130Z,24.80
2022-09-05T15:11:23.965Z,24.80
2022-09-05T15:12:16.180Z,24.80
2022-09-05T15:12:22.171Z,24.70
2022-09-05T15:13:21.405Z,24.70
2022-09-05T15:14:31.284Z,23.20
2022-09-05T15:15:39.681Z,24.70
2022-09-05T15:17:00.833Z,24.60
2022-09-05T15:18:09.804Z,24.50
2022-09-05T15:19:35.116Z,24.50
2022-09-05T15:20:41.515Z,24.40
2022-09-05T15:21:45.031Z,24.40
2022-09-05T15:22:57.496Z,24.30
2022-09-05T15:24:03.969Z,24.10
2022-09-05T15:25:17.808Z,22.50
2022-09-05T15:26:25.564Z,23.90
2022-09-05T15:27:33.265Z,23.90
2022-09-05T15:28:40.172Z,23.90
2022-09-05T15:29:55.670Z,23.80
2022-09-05T15:31:04.825Z,23.70
2022-09-05T15:32:17.504Z,23.70
2022-09-05T15:33:25.671Z,23.70
2022-09-05T15:34:33.341Z,22.30
2022-09-05T15:35:42.493Z,23.60
2022-09-05T15:36:45.719Z,23.70
2022-09-05T15:37:50.339Z,23.70
2022-09-05T15:38:56.079Z,23.80
2022-09-05T15:40:23.563Z,23.70
2022-09-05T15:41:29.776Z,23.80
2022-09-05T15:42:36.488Z,23.70
2022-09-05T15:43:52.215Z,22.40
2022-09-05T15:45:10.514Z,23.70
2022-09-05T15:46:24.595Z,23.60
2022-09-05T15:47:34.942Z,23.60
2022-09-05T15:48:40.894Z,23.50
2022-09-05T15:49:59.553Z,23.50
2022-09-05T15:51:17.702Z,23.50
2022-09-05T15:52:40.067Z,23.40
2022-09-05T15:53:45.471Z,21.00
2022-09-05T15:54:52.039Z,23.40
2022-09-05T15:56:05.296Z,23.40
2022-09-05T15:57:20.675Z,23.30
2022-09-05T15:58:23.642Z,23.20
2022-09-05T15:59:35.637Z,23.20
2022-09-05T16:00:46.148Z,23.10
2022-09-05T16:01:59.793Z,23.00
2022-09-05T16:06:37.702Z,22.90
2022-09-05T16:10:31.449Z,22.80
2022-09-05T16:10:36.457Z,22.90
2022-09-05T16:10:41.150Z,22.00
2022-09-05T16:10:50.280Z,22.70
2022-09-05T16:11:17.660Z,22.60
2022-09-05T16:12:19.416Z,22.50
2022-09-05T16:13:23.228Z,22.60
2022-09-05T16:15:40.791Z,22.50
2022-09-05T16:21:05.329Z,22.30
2022-09-05T16:23:18.907Z,22.40
2022-09-05T16:23:26.367Z,22.40
2022-09-05T16:23:27.598Z,22.40
2022-09-05T16:23:34.736Z,22.40
2022-09-05T16:23:49.489Z,22.50
2022-09-05T16:25:01.949Z,21.50
2022-09-05T16:26:15.666Z,22.40
2022-09-05T16:27:51.134Z,22.30
2022-09-05T16:29:01.419Z,22.30
2022-09-05T16:30:06.424Z,22.20
2022-09-05T16:31:34.963Z,22.20
2022-09-05T16:32:51.267Z,22.20
2022-09-05T16:33:54.685Z,22.20
2022-09-05T16:35:02.545Z,22.10
2022-09-05T16:36:16.255Z,22.10
2022-09-05T16:37:28.307Z,22.00
2022-09-05T16:38:49.534Z,22.00
2022-09-05T16:40:02.392Z,21.90
2022-09-05T16:41:14.286Z,22.00
2022-09-05T16:42:25.476Z,21.90
2022-09-05T16:43:54.569Z,21.90
2022-09-05T16:45:04.365Z,22.00
2022-09-05T16:46:16.101Z,22.00
2022-09-05T16:47:32.776Z,22.00
2022-09-05T16:48:55.234Z,22.00
2022-09-05T16:50:16.922Z,22.00
2022-09-05T16:51:38.659Z,22.10
2022-09-05T16:53:05.446Z,22.10
2022-09-05T16:54:36.526Z,22.10
2022-09-05T16:55:48.258Z,22.10
2022-09-05T16:56:58.159Z,22.10
2022-09-05T16:58:14.102Z,22.10
2022-09-05T16:59:23.501Z,22.10
2022-09-05T17:00:51.866Z,22.00
2022-09-05T17:02:10.078Z,22.00
2022-09-05T17:03:28.437Z,22.00
2022-09-05T17:05:05.001Z,23.40
2022-09-05T17:06:26.274Z,22.00
2022-09-05T17:07:37.656Z,22.00
2022-09-05T17:08:50.066Z,22.00
2022-09-05T17:09:55.978Z,21.10
2022-09-05T17:11:13.877Z,22.00
2022-09-05T17:12:35.610Z,22.00
2022-09-05T17:13:46.858Z,22.00
2022-09-05T17:14:58.724Z,22.00
2022-09-05T17:16:08.706Z,21.90
2022-09-05T17:18:04.596Z,21.90
2022-09-05T17:18:43.610Z,21.90
2022-09-05T17:20:07.157Z,21.80
2022-09-05T17:21:30.010Z,21.80
2022-09-05T17:25:55.724Z,21.70
2022-09-05T17:29:26.224Z,21.50
2022-09-05T17:29:32.367Z,21.20
2022-09-05T17:29:32.371Z,21.40
2022-09-05T17:29:33.145Z,21.30
2022-09-05T17:32:54.810Z,20.90
2022-09-05T17:34:27.479Z,18.90
2022-09-05T17:36:05.960Z,20.70
2022-09-05T17:37:39.814Z,20.60
2022-09-05T17:39:01.042Z,20.50
2022-09-05T17:40:30.736Z,20.40
2022-09-05T17:41:59.562Z,20.40
2022-09-05T17:43:10.654Z,20.30
2022-09-05T17:44:31.971Z,20.20
2022-09-05T17:45:48.831Z,20.20
2022-09-05T17:47:15.168Z,20.10
2022-09-05T17:49:18.807Z,20.00
2022-09-05T17:50:51.341Z,19.90
2022-09-05T17:52:28.825Z,19.90
2022-09-05T17:53:33.966Z,19.80
2022-09-05T17:54:50.213Z,19.80
2022-09-05T17:56:29.726Z,19.70
2022-09-05T17:57:38.850Z,19.70
2022-09-05T17:59:16.178Z,17.20
2022-09-05T18:01:01.242Z,19.70
2022-09-05T18:02:31.068Z,19.70
2022-09-05T18:04:17.242Z,19.60
2022-09-05T18:06:06.095Z,19.70
2022-09-05T18:07:58.768Z,19.60
2022-09-05T18:09:11.569Z,19.60
2022-09-05T18:10:54.196Z,19.70
2022-09-05T18:14:01.129Z,19.60
2022-09-05T18:15:28.565Z,19.60
2022-09-05T18:18:06.375Z,19.50
2022-09-05T18:21:27.745Z,19.50
2022-09-05T18:22:39.209Z,19.30
2022-09-05T18:25:33.702Z,18.60
2022-09-05T18:27:30.749Z,19.40
2022-09-05T18:28:44.888Z,19.40
2022-09-05T18:30:03.824Z,19.30
2022-09-05T18:31:54.126Z,19.30
2022-09-05T18:33:54.986Z,19.30
2022-09-05T18:34:53.156Z,19.40
2022-09-05T18:36:37.352Z,19.50
2022-09-05T18:38:16.978Z,19.60
2022-09-05T18:39:46.077Z,19.70
2022-09-05T18:41:09.703Z,19.80
2022-09-05T18:42:26.094Z,19.90
2022-09-05T18:44:14.154Z,20.00
2022-09-05T18:45:28.160Z,20.00
2022-09-05T18:46:41.429Z,20.10